Terminal Aerodrome Forecast
Issued by NWS Duluth, MN

Home | Current Version | Previous Version | Text Only | Print | Product List | Glossary On
Versions: 1 2 3 4 5 6 7 8 9 10 11 12 13 14 15 16 17 18 19
489
FTUS43 KDLH 102342
TAFINL
TAF
KINL 102342Z 1100/1124 VRB03KT P6SM SCT200
     FM111500 26004KT P6SM BKN050 OVC120
     FM111900 26007KT P6SM BKN030 OVC050=

USA.gov is the U.S. government's official web portal to all federal, state and local government web resources and services.